Time;durP1;ratioP1;P1;durP2;ratioP2;P2;SDS_P1;SDS_P2;PMS_P1;PMS_P2;Temp;Humidity;BMP_temperature;BMP_pressure;BME280_temperature;BME280_humidity;BME280_pressure;Samples;Min_cycle;Max_cycle;Signal;HPM_P1;HPM_P2
2022/10/22 00:00:13;;;;;;;4.55;4.22;;;;;;;5.80;69.49;94272.94;5090330;28;20389;-34
2022/10/22 00:02:38;;;;;;;3.50;3.15;;;;;;;5.55;69.93;94273.88;5094045;28;20123;-34
2022/10/22 00:05:04;;;;;;;2.83;2.60;;;;;;;5.50;70.12;94262.94;5083911;28;20103;-34
2022/10/22 00:07:30;;;;;;;11.85;2.78;;;;;;;5.49;70.18;94262.19;5094258;28;20056;-34
2022/10/22 00:09:55;;;;;;;1.48;1.48;;;;;;;5.42;69.87;94246.22;5090480;28;20035;-34
2022/10/22 00:12:21;;;;;;;3.58;3.30;;;;;;;5.57;69.84;94263.19;5088016;28;20510;-34
2022/10/22 00:14:46;;;;;;;4.32;3.10;;;;;;;5.50;69.57;94254.72;5091108;28;20028;-34
2022/10/22 00:17:12;;;;;;;2.67;2.45;;;;;;;5.33;69.08;94257.41;5089065;28;20036;-34
2022/10/22 00:19:38;;;;;;;2.55;2.45;;;;;;;5.40;68.94;94251.47;5087345;28;20470;-35
2022/10/22 00:22:04;;;;;;;3.03;2.83;;;;;;;5.49;68.28;94245.00;5091146;28;20024;-35
2022/10/22 00:24:31;;;;;;;1.88;1.55;;;;;;;5.36;68.77;94245.47;5091689;28;20028;-35
2022/10/22 00:26:56;;;;;;;2.17;1.98;;;;;;;5.35;68.85;94249.44;5088441;28;20023;-35
2022/10/22 00:29:22;;;;;;;1.45;1.27;;;;;;;5.30;69.14;94244.72;5095155;28;20103;-34
2022/10/22 00:31:48;;;;;;;0.68;0.68;;;;;;;5.28;69.01;94253.41;5063960;28;20553;-35
2022/10/22 00:34:20;;;;;;;3.15;2.90;;;;;;;5.09;69.37;94252.38;5097951;28;20031;-35
2022/10/22 00:36:46;;;;;;;3.10;1.50;;;;;;;5.04;69.81;94255.13;5073655;28;20032;-35
2022/10/22 00:39:14;;;;;;;2.40;2.20;;;;;;;5.13;69.64;94246.69;5089736;28;20024;-34
2022/10/22 00:41:41;;;;;;;2.17;2.08;;;;;;;5.09;69.79;94246.19;5089788;28;20107;-34
2022/10/22 00:44:07;;;;;;;1.48;1.38;;;;;;;4.85;69.78;94259.53;5094239;28;20024;-35
2022/10/22 00:46:32;;;;;;;2.20;1.50;;;;;;;4.80;70.14;94261.00;5093173;28;20103;-35
2022/10/22 00:48:59;;;;;;;1.27;1.17;;;;;;;5.04;69.14;94255.88;5095834;28;20039;-34
2022/10/22 00:51:28;;;;;;;2.47;2.17;;;;;;;4.99;69.20;94247.63;5074803;28;20032;-35
2022/10/22 00:53:56;;;;;;;9.57;2.23;;;;;;;4.62;69.86;94225.88;5077731;28;20021;-35
2022/10/22 00:56:24;;;;;;;2.17;2.08;;;;;;;4.66;70.04;94231.84;5080018;28;20101;-35
2022/10/22 00:58:56;;;;;;;2.17;1.85;;;;;;;4.57;70.50;94235.53;5054326;28;20066;-35
2022/10/22 01:01:27;;;;;;;1.50;1.42;;;;;;;4.79;70.07;94234.13;5089771;28;20039;-35
2022/10/22 01:03:53;;;;;;;0.95;0.95;;;;;;;4.63;68.79;94217.16;5090402;28;20507;-35
2022/10/22 01:06:28;;;;;;;1.40;1.38;;;;;;;4.79;68.20;94223.19;5093013;28;20038;-35
2022/10/22 01:09:01;;;;;;;3.45;2.00;;;;;;;4.76;68.06;94224.94;5086647;28;20023;-35
2022/10/22 01:12:04;;;;;;;0.63;0.63;;;;;;;4.58;67.87;94226.13;5092055;28;20028;-35
2022/10/22 01:14:51;;;;;;;3.55;3.33;;;;;;;4.42;68.49;94217.81;5089099;28;20035;-35
2022/10/22 01:17:37;;;;;;;2.45;2.35;;;;;;;4.66;67.72;94220.91;5085751;28;20050;-35
2022/10/22 01:20:27;;;;;;;0.90;0.90;;;;;;;4.44;68.66;94223.56;5071355;28;20036;-35
2022/10/22 01:23:07;;;;;;;1.13;1.13;;;;;;;4.38;68.83;94215.31;5090067;28;20490;-35
2022/10/22 01:26:09;;;;;;;2.92;2.67;;;;;;;4.21;69.51;94222.69;5094440;28;20047;-35
2022/10/22 01:28:44;;;;;;;1.58;0.90;;;;;;;4.10;69.46;94214.44;5074577;28;20036;-35
2022/10/22 01:31:10;;;;;;;0.88;0.85;;;;;;;4.06;69.67;94208.44;5085825;28;20028;-35
2022/10/22 01:33:36;;;;;;;1.52;1.42;;;;;;;4.19;69.29;94208.78;5094448;28;20032;-34
2022/10/22 01:36:02;;;;;;;1.75;1.33;;;;;;;4.27;69.34;94215.28;5074871;28;20022;-34
2022/10/22 01:38:28;;;;;;;0.47;0.47;;;;;;;4.08;69.09;94211.44;5074902;28;20452;-34
2022/10/22 01:40:54;;;;;;;1.80;1.67;;;;;;;4.16;69.58;94215.22;5074343;28;20111;-35
2022/10/22 01:43:20;;;;;;;1.25;1.25;;;;;;;4.10;68.19;94210.94;5075825;28;20069;-34
2022/10/22 01:45:55;;;;;;;1.77;1.67;;;;;;;4.13;68.12;94213.47;5094043;28;20020;-34
2022/10/22 01:48:30;;;;;;;2.65;2.40;;;;;;;4.11;67.39;94210.47;5095620;28;20028;-34
2022/10/22 01:51:07;;;;;;;2.83;2.60;;;;;;;4.11;67.70;94199.53;5093663;28;20486;-34
2022/10/22 01:53:40;;;;;;;1.50;1.20;;;;;;;4.12;67.09;94200.28;5093800;28;20526;-34
2022/10/22 01:56:25;;;;;;;2.92;2.15;;;;;;;4.21;67.13;94192.63;5067602;28;20059;-34
2022/10/22 01:59:07;;;;;;;0.93;0.93;;;;;;;4.16;66.93;94196.06;5093184;28;20032;-34
2022/10/22 02:01:53;;;;;;;1.63;1.58;;;;;;;4.36;67.03;94193.19;5074801;28;20035;-34
2022/10/22 02:04:28;;;;;;;2.85;2.17;;;;;;;4.11;66.41;94172.22;5092360;28;20445;-34
2022/10/22 02:06:57;;;;;;;1.25;1.25;;;;;;;4.22;66.94;94185.19;5092293;28;20055;-34
2022/10/22 02:09:24;;;;;;;1.38;1.33;;;;;;;4.20;67.30;94198.59;5074581;28;20055;-34
2022/10/22 02:11:49;;;;;;;1.15;1.15;;;;;;;4.12;67.14;94170.97;5074093;28;20111;-34
2022/10/22 02:14:16;;;;;;;1.58;1.48;;;;;;;4.22;67.40;94190.66;5095247;28;20024;-34
2022/10/22 02:16:44;;;;;;;2.20;2.10;;;;;;;4.01;67.77;94195.50;5073392;28;20059;-34
2022/10/22 02:19:43;;;;;;;2.60;1.15;;;;;;;3.89;68.10;94193.19;5076010;28;20165;-34
2022/10/22 02:22:09;;;;;;;1.08;1.05;;;;;;;3.71;67.85;94188.84;5086390;28;20120;-35
2022/10/22 02:24:34;;;;;;;2.35;2.25;;;;;;;3.59;68.26;94185.31;5091741;28;20111;-34
2022/10/22 02:27:03;;;;;;;1.10;1.00;;;;;;;3.58;68.13;94183.03;5079005;28;20028;-34
2022/10/22 02:29:42;;;;;;;0.50;0.50;;;;;;;3.70;68.25;94192.84;5093530;28;20039;-34
2022/10/22 02:32:09;;;;;;;0.55;0.55;;;;;;;3.92;67.28;94184.75;5066708;28;20473;-34
2022/10/22 02:34:34;;;;;;;1.17;0.88;;;;;;;3.91;66.87;94186.00;5076872;28;20024;-34
2022/10/22 02:37:01;;;;;;;0.73;0.73;;;;;;;3.48;67.85;94181.75;5094552;28;20077;-34
2022/10/22 02:39:27;;;;;;;1.17;1.13;;;;;;;3.16;69.15;94161.16;5079755;28;20043;-34
2022/10/22 02:41:54;;;;;;;1.02;1.02;;;;;;;3.37;69.51;94181.66;5092437;28;20040;-34
2022/10/22 02:44:21;;;;;;;1.40;1.30;;;;;;;3.42;69.32;94183.69;5091517;28;20608;-34
2022/10/22 02:46:47;;;;;;;0.95;0.95;;;;;;;3.72;68.21;94182.16;5091707;28;20157;-34
2022/10/22 02:49:12;;;;;;;1.10;1.10;;;;;;;3.59;68.23;94187.28;5091276;28;20077;-34
2022/10/22 02:51:38;;;;;;;1.60;1.55;;;;;;;3.67;67.63;94186.34;5092327;28;20119;-34
2022/10/22 02:54:03;;;;;;;2.05;1.95;;;;;;;3.80;66.79;94188.66;5093357;28;20024;-34
2022/10/22 02:56:29;;;;;;;2.25;2.10;;;;;;;3.67;67.55;94183.63;5091174;28;20497;-34
2022/10/22 02:58:54;;;;;;;2.08;1.77;;;;;;;3.58;67.87;94183.81;5094698;28;20549;-34
2022/10/22 03:01:20;;;;;;;3.15;2.90;;;;;;;3.29;68.16;94175.88;5092242;28;20031;-34
2022/10/22 03:03:45;;;;;;;2.65;1.75;;;;;;;3.25;68.52;94193.72;5093536;28;20572;-34
2022/10/22 03:06:11;;;;;;;2.28;1.95;;;;;;;3.16;69.06;94194.66;5090973;28;20031;-34
2022/10/22 03:08:36;;;;;;;2.20;2.10;;;;;;;3.18;69.30;94194.16;5093994;28;20407;-34
2022/10/22 03:11:02;;;;;;;1.98;1.52;;;;;;;3.15;68.63;94182.22;5092987;28;20106;-34
2022/10/22 03:13:28;;;;;;;1.80;1.67;;;;;;;3.32;68.56;94206.91;5091105;28;20128;-34
2022/10/22 03:15:53;;;;;;;0.93;0.93;;;;;;;3.34;68.26;94193.53;5092193;28;20047;-34
2022/10/22 03:18:19;;;;;;;2.28;1.73;;;;;;;3.19;68.98;94214.72;5092024;28;20540;-34
2022/10/22 03:20:44;;;;;;;0.75;0.75;;;;;;;2.99;69.13;94208.09;5092053;28;20101;-34
2022/10/22 03:23:11;;;;;;;5.70;2.42;;;;;;;3.28;68.78;94212.59;5093296;28;20043;-34
2022/10/22 03:25:40;;;;;;;1.20;1.15;;;;;;;3.32;68.50;94212.38;5069724;28;20020;-34
2022/10/22 03:28:07;;;;;;;2.50;1.27;;;;;;;3.48;68.37;94209.78;5092713;28;20024;-34
2022/10/22 03:30:32;;;;;;;1.80;1.70;;;;;;;3.28;68.35;94214.56;5074279;28;20031;-34
2022/10/22 03:32:58;;;;;;;1.85;1.75;;;;;;;3.11;69.11;94206.25;5091775;28;20434;-34
2022/10/22 03:35:24;;;;;;;0.50;0.50;;;;;;;3.17;68.51;94200.81;5091217;28;20102;-34
2022/10/22 03:37:50;;;;;;;2.38;2.25;;;;;;;2.94;69.16;94188.97;5091182;28;20028;-34
2022/10/22 03:40:15;;;;;;;1.30;1.20;;;;;;;2.92;70.04;94188.72;5092710;28;20035;-34
2022/10/22 03:42:41;;;;;;;0.50;0.50;;;;;;;3.21;70.09;94193.91;5091046;28;20461;-34
2022/10/22 03:45:07;;;;;;;2.08;1.88;;;;;;;3.34;69.64;94188.06;5076864;28;20032;-34
2022/10/22 03:47:33;;;;;;;0.82;0.82;;;;;;;3.29;68.83;94192.25;5093153;28;20027;-34
2022/10/22 03:49:59;;;;;;;2.85;2.72;;;;;;;3.19;68.78;94190.94;5095315;28;20027;-34
2022/10/22 03:52:24;;;;;;;2.55;2.35;;;;;;;3.28;68.68;94198.19;5092506;28;20102;-34
2022/10/22 03:54:50;;;;;;;1.38;1.38;;;;;;;3.06;69.64;94191.31;5089906;28;20511;-34
2022/10/22 03:57:15;;;;;;;2.17;1.92;;;;;;;2.95;69.79;94188.47;5090190;28;20031;-34
2022/10/22 03:59:42;;;;;;;0.95;0.95;;;;;;;3.07;69.37;94187.34;5072382;28;20484;-34
2022/10/22 04:02:09;;;;;;;0.60;0.60;;;;;;;2.83;69.87;94177.94;5092363;28;20024;-34
2022/10/22 04:04:35;;;;;;;1.50;1.45;;;;;;;2.69;70.35;94176.06;5097467;28;20028;-34
2022/10/22 04:07:00;;;;;;;9.18;2.75;;;;;;;2.69;71.02;94182.25;5082459;28;20046;-34
2022/10/22 04:09:26;;;;;;;7.68;3.95;;;;;;;2.74;70.24;94195.22;5093983;28;20036;-34
2022/10/22 04:11:51;;;;;;;0.88;0.88;;;;;;;2.82;70.05;94193.56;5089707;28;20407;-34
2022/10/22 04:14:17;;;;;;;0.88;0.88;;;;;;;2.97;70.30;94188.75;5091490;28;20035;-34
2022/10/22 04:16:42;;;;;;;1.77;1.67;;;;;;;3.13;69.72;94189.38;5090469;28;20408;-34
2022/10/22 04:19:08;;;;;;;1.48;1.40;;;;;;;3.12;70.70;94198.81;5089656;28;20032;-34
2022/10/22 04:21:34;;;;;;;1.35;1.17;;;;;;;2.97;71.26;94191.47;5095635;28;20058;-34
2022/10/22 04:23:59;;;;;;;1.65;1.55;;;;;;;3.07;71.44;94194.81;5089632;28;20047;-34
2022/10/22 04:26:25;;;;;;;2.38;2.28;;;;;;;3.27;71.35;94197.44;5096298;28;20023;-34
2022/10/22 04:28:51;;;;;;;0.85;0.85;;;;;;;3.26;70.79;94173.38;5091391;28;20031;-34
2022/10/22 04:31:19;;;;;;;0.80;0.80;;;;;;;3.29;70.93;94180.59;5075098;28;20038;-34
2022/10/22 04:33:45;;;;;;;0.32;0.32;;;;;;;3.21;71.13;94184.97;5090041;28;20039;-34
2022/10/22 04:36:16;;;;;;;2.67;2.45;;;;;;;3.27;71.52;94175.59;5089981;28;20414;-34
2022/10/22 04:38:44;;;;;;;1.02;0.85;;;;;;;3.32;70.92;94180.38;5091575;28;20016;-34
2022/10/22 04:41:17;;;;;;;0.88;0.88;;;;;;;3.34;71.16;94177.91;5091508;28;20035;-34
2022/10/22 04:43:43;;;;;;;0.73;0.73;;;;;;;3.48;70.79;94174.31;5093551;28;20024;-35
2022/10/22 04:46:09;;;;;;;11.70;0.90;;;;;;;3.67;69.96;94172.69;5089755;28;20024;-34
2022/10/22 04:48:36;;;;;;;1.60;1.50;;;;;;;3.67;70.01;94166.47;5094193;28;20024;-34
2022/10/22 04:51:03;;;;;;;1.65;1.55;;;;;;;3.74;69.98;94169.53;5091013;28;20114;-34
2022/10/22 04:53:29;;;;;;;0.95;0.95;;;;;;;3.76;69.75;94155.38;5088961;28;20039;-34
2022/10/22 04:55:55;;;;;;;6.53;4.20;;;;;;;3.90;69.79;94168.09;5089951;28;20032;-35
2022/10/22 04:58:20;;;;;;;4.50;4.20;;;;;;;3.72;70.64;94166.53;5071144;28;20035;-34
2022/10/22 05:00:45;;;;;;;11.48;3.97;;;;;;;3.74;70.42;94166.03;5089797;28;20024;-34
2022/10/22 05:03:11;;;;;;;1.55;0.98;;;;;;;3.72;71.00;94171.25;5075402;28;20423;-35
2022/10/22 05:05:36;;;;;;;1.50;1.45;;;;;;;3.83;70.57;94171.31;5093952;28;20077;-34
2022/10/22 05:08:02;;;;;;;1.30;1.30;;;;;;;4.03;70.08;94159.50;5085694;28;20024;-34
2022/10/22 05:10:27;;;;;;;2.67;2.47;;;;;;;4.01;69.97;94159.97;5093439;28;20520;-34
2022/10/22 05:12:53;;;;;;;1.63;1.52;;;;;;;4.04;69.71;94155.53;5093139;28;20024;-35
2022/10/22 05:15:18;;;;;;;2.30;2.10;;;;;;;4.10;70.16;94164.50;5088672;28;20126;-35
2022/10/22 05:17:44;;;;;;;7.38;2.83;;;;;;;4.16;70.01;94168.75;5092749;28;20035;-35
2022/10/22 05:20:10;;;;;;;2.30;2.20;;;;;;;4.20;70.06;94168.53;5099778;28;20031;-34
2022/10/22 05:22:35;;;;;;;1.65;1.58;;;;;;;4.23;70.61;94167.53;5093127;28;20050;-34
2022/10/22 05:25:00;;;;;;;1.00;1.00;;;;;;;4.18;71.15;94171.75;5098201;28;20470;-34
2022/10/22 05:27:26;;;;;;;8.25;4.18;;;;;;;4.20;71.06;94172.00;5099234;28;20032;-34
2022/10/22 05:29:51;;;;;;;0.85;0.82;;;;;;;4.36;70.83;94187.72;5095322;28;20074;-34
2022/10/22 05:32:17;;;;;;;0.93;0.93;;;;;;;4.36;71.79;94187.72;5079898;28;20039;-34
2022/10/22 05:34:42;;;;;;;2.92;1.50;;;;;;;4.47;71.88;94181.56;5094329;28;20020;-34
2022/10/22 05:37:08;;;;;;;4.20;3.95;;;;;;;4.53;72.06;94180.34;5096036;28;20101;-34
2022/10/22 05:39:35;;;;;;;2.60;2.50;;;;;;;4.48;72.17;94185.81;5093901;28;20035;-34
2022/10/22 05:42:02;;;;;;;0.93;0.93;;;;;;;4.60;71.95;94187.31;5095512;28;20100;-34
2022/10/22 05:44:27;;;;;;;3.78;3.58;;;;;;;4.63;72.37;94191.06;5098272;28;20051;-34
2022/10/22 05:46:53;;;;;;;7.07;6.05;;;;;;;4.71;71.65;94181.13;5094599;28;20062;-34
2022/10/22 05:49:19;;;;;;;5.43;5.07;;;;;;;4.76;72.13;94185.88;5096708;28;20084;-35
2022/10/22 05:51:45;;;;;;;4.28;3.30;;;;;;;4.91;71.44;94192.66;5094427;28;20038;-34
2022/10/22 05:54:18;;;;;;;3.65;2.72;;;;;;;4.98;71.20;94189.41;5092833;28;20024;-34
2022/10/22 05:56:43;;;;;;;2.17;2.05;;;;;;;5.15;71.05;94194.94;5094895;28;20105;-34
2022/10/22 05:59:12;;;;;;;0.80;0.80;;;;;;;5.17;71.29;94195.19;5094485;28;20036;-34
2022/10/22 06:01:38;;;;;;;3.42;3.13;;;;;;;5.34;71.47;94195.94;5092000;28;20027;-34
2022/10/22 06:04:06;;;;;;;3.53;3.28;;;;;;;5.29;71.50;94189.22;5094283;28;20017;-34
2022/10/22 06:06:46;;;;;;;4.60;4.30;;;;;;;5.38;71.15;94193.72;5094828;28;20036;-34
2022/10/22 06:09:28;;;;;;;8.13;7.50;;;;;;;5.71;70.76;94188.25;5074223;28;20027;-35
2022/10/22 06:11:54;;;;;;;6.35;5.85;;;;;;;5.96;69.61;94189.22;5073470;28;20545;-35
2022/10/22 06:14:20;;;;;;;6.75;5.82;;;;;;;6.23;68.21;94184.94;5091123;28;20028;-35
2022/10/22 06:16:47;;;;;;;5.72;5.28;;;;;;;6.28;68.30;94184.91;5092414;28;20101;-34
2022/10/22 06:19:15;;;;;;;7.88;7.22;;;;;;;6.49;68.13;94186.09;5091348;28;20541;-34
2022/10/22 06:21:40;;;;;;;6.45;5.75;;;;;;;6.70;68.03;94184.53;5097094;28;20082;-34
2022/10/22 06:24:06;;;;;;;6.20;5.60;;;;;;;6.96;67.37;94189.63;5099139;28;20488;-34
2022/10/22 06:26:32;;;;;;;15.90;6.45;;;;;;;7.35;66.86;94192.13;5092827;28;20138;-34
2022/10/22 06:28:59;;;;;;;4.22;3.90;;;;;;;7.58;65.80;94187.97;5084255;28;20062;-34
2022/10/22 06:31:25;;;;;;;6.82;5.70;;;;;;;7.80;65.46;94190.53;5089770;28;20495;-34
2022/10/22 06:33:51;;;;;;;2.60;2.42;;;;;;;8.07;65.13;94199.81;5090377;28;20037;-34
2022/10/22 06:36:19;;;;;;;3.25;1.30;;;;;;;8.28;64.90;94200.88;5089801;28;20087;-34
2022/10/22 06:38:44;;;;;;;2.42;2.25;;;;;;;8.11;64.69;94201.03;5090179;28;20514;-34
2022/10/22 06:41:13;;;;;;;5.32;3.03;;;;;;;7.86;65.71;94207.72;5088265;28;20048;-34
2022/10/22 06:43:39;;;;;;;1.87;1.77;;;;;;;8.09;65.67;94208.28;5088711;28;20089;-34
2022/10/22 06:46:10;;;;;;;1.63;1.48;;;;;;;8.43;65.21;94217.72;5068525;28;20024;-34
2022/10/22 06:48:38;;;;;;;2.78;2.58;;;;;;;8.80;64.60;94209.56;5088232;28;20414;-34
2022/10/22 06:51:07;;;;;;;1.83;1.73;;;;;;;8.86;64.06;94201.97;5089923;28;20695;-34
2022/10/22 06:53:34;;;;;;;3.47;3.28;;;;;;;9.06;63.98;94206.97;5085680;28;20121;-34
2022/10/22 06:56:07;;;;;;;2.63;2.42;;;;;;;9.78;64.36;94205.22;5087670;28;20097;-34
2022/10/22 06:58:33;;;;;;;3.88;2.60;;;;;;;10.86;59.88;94196.78;5088015;28;20035;-34
2022/10/22 07:01:07;;;;;;;2.45;2.22;;;;;;;10.97;59.16;94196.56;5089157;28;20123;-34
2022/10/22 07:03:34;;;;;;;1.05;1.05;;;;;;;11.15;58.68;94197.69;5091759;28;20024;-34
2022/10/22 07:06:05;;;;;;;1.25;1.25;;;;;;;11.09;59.05;94199.81;5092040;28;20100;-34
2022/10/22 07:08:30;;;;;;;4.47;3.53;;;;;;;11.14;59.87;94201.72;5072129;28;20563;-34
2022/10/22 07:11:03;;;;;;;9.38;2.35;;;;;;;12.32;58.20;94198.53;5091089;28;20131;-34
2022/10/22 07:13:29;;;;;;;1.45;1.45;;;;;;;13.46;53.99;94193.09;5089669;28;20036;-34
2022/10/22 07:15:55;;;;;;;1.88;1.67;;;;;;;13.74;52.98;94186.69;5090889;28;20020;-35
2022/10/22 07:18:21;;;;;;;2.58;2.38;;;;;;;14.74;50.72;94195.28;5091745;28;20116;-35
2022/10/22 07:20:48;;;;;;;2.25;2.05;;;;;;;15.89;48.00;94192.31;5089186;28;20020;-35
2022/10/22 07:23:14;;;;;;;0.93;0.93;;;;;;;17.00;45.71;94184.22;5089985;28;20533;-35
2022/10/22 07:25:40;;;;;;;3.05;1.20;;;;;;;17.65;44.27;94176.22;5088427;28;20031;-35
2022/10/22 07:28:05;;;;;;;1.90;1.80;;;;;;;18.27;42.70;94180.38;5069301;28;20028;-35
2022/10/22 07:30:31;;;;;;;2.10;2.00;;;;;;;19.00;40.88;94172.66;5085561;28;20043;-35
2022/10/22 07:32:56;;;;;;;2.13;2.03;;;;;;;19.54;39.67;94163.44;5089925;28;20165;-35
2022/10/22 07:35:22;;;;;;;2.53;2.13;;;;;;;19.97;38.44;94160.84;5087913;28;20119;-35
2022/10/22 07:37:47;;;;;;;3.60;2.88;;;;;;;20.23;37.95;94166.25;5088064;28;20016;-35
2022/10/22 07:40:13;;;;;;;1.48;1.38;;;;;;;20.10;38.46;94168.78;5069956;28;20059;-35
2022/10/22 07:42:38;;;;;;;2.47;2.28;;;;;;;20.51;37.44;94173.09;5088055;28;20023;-36
2022/10/22 07:45:04;;;;;;;2.22;2.05;;;;;;;20.85;36.34;94167.03;5091589;28;20024;-35
2022/10/22 07:47:30;;;;;;;2.03;1.83;;;;;;;21.00;35.25;94168.72;5090318;28;20032;-35
2022/10/22 07:49:55;;;;;;;2.75;2.47;;;;;;;21.39;34.94;94161.50;5093401;28;20035;-35
2022/10/22 07:52:21;;;;;;;3.22;1.75;;;;;;;21.94;34.27;94165.06;5090778;28;20503;-35
2022/10/22 07:54:46;;;;;;;1.83;1.73;;;;;;;22.04;34.93;94155.16;5090408;28;20621;-35
2022/10/22 07:57:12;;;;;;;2.72;2.53;;;;;;;22.63;33.55;94156.75;5097297;28;20507;-35
2022/10/22 07:59:37;;;;;;;1.92;1.73;;;;;;;22.39;33.90;94141.16;5093203;28;20495;-35
2022/10/22 08:02:03;;;;;;;4.47;2.97;;;;;;;22.70;33.54;94147.28;5088588;28;20034;-35
2022/10/22 08:04:28;;;;;;;2.55;2.22;;;;;;;22.55;33.81;94147.75;5092381;28;20423;-35
2022/10/22 08:06:54;;;;;;;2.50;2.40;;;;;;;22.28;34.40;94142.63;5098254;28;20031;-35
2022/10/22 08:09:19;;;;;;;3.90;2.60;;;;;;;22.53;32.45;94144.81;5096647;28;20115;-36
2022/10/22 08:11:45;;;;;;;4.10;2.45;;;;;;;22.04;33.99;94152.34;5094770;28;20039;-36
2022/10/22 08:14:11;;;;;;;2.22;2.00;;;;;;;22.32;32.92;94156.94;5093070;28;20092;-36
2022/10/22 08:16:36;;;;;;;0.85;0.85;;;;;;;22.70;33.43;94158.56;5091376;28;20491;-36
2022/10/22 08:19:02;;;;;;;1.88;1.27;;;;;;;22.85;33.03;94158.06;5086453;28;20038;-35
2022/10/22 08:21:28;;;;;;;1.20;1.05;;;;;;;22.86;33.03;94153.16;5087086;28;20036;-35
2022/10/22 08:23:53;;;;;;;3.03;1.90;;;;;;;22.81;32.42;94140.91;5089785;28;20048;-35
2022/10/22 08:26:19;;;;;;;1.27;1.17;;;;;;;23.15;32.60;94162.66;5088722;28;20046;-35
2022/10/22 08:28:44;;;;;;;2.47;2.28;;;;;;;22.76;33.50;94149.75;5084333;28;20060;-35
2022/10/22 08:31:10;;;;;;;1.52;1.05;;;;;;;22.94;32.55;94142.38;5062325;28;20024;-36
2022/10/22 08:33:37;;;;;;;2.53;2.13;;;;;;;22.83;32.64;94141.03;5088385;28;20100;-36
2022/10/22 08:36:03;;;;;;;1.50;1.35;;;;;;;23.25;32.13;94145.63;5088220;28;20454;-36
2022/10/22 08:38:30;;;;;;;1.67;1.58;;;;;;;23.37;31.24;94149.16;5093624;28;20032;-36
2022/10/22 08:41:16;;;;;;;3.67;2.17;;;;;;;23.61;32.26;94144.91;5098246;28;20031;-36
2022/10/22 08:44:00;;;;;;;0.95;0.95;;;;;;;24.04;31.18;94142.38;5088595;28;20470;-36
2022/10/22 08:46:38;;;;;;;0.77;0.77;;;;;;;24.14;29.64;94134.50;5092454;28;20052;-36
2022/10/22 08:49:06;;;;;;;1.17;1.10;;;;;;;24.40;30.05;94135.94;5092934;28;20108;-36
2022/10/22 08:51:34;;;;;;;0.80;0.80;;;;;;;24.41;29.40;94136.66;5074336;28;20105;-36
2022/10/22 08:54:21;;;;;;;0.47;0.47;;;;;;;23.92;30.88;94145.28;5066726;28;20376;-36
2022/10/22 08:57:18;;;;;;;0.90;0.90;;;;;;;23.63;30.52;94158.41;5072136;28;20032;-36
2022/10/22 08:59:53;;;;;;;1.13;1.05;;;;;;;23.20;31.00;94149.56;5083985;28;20100;-35
2022/10/22 09:02:52;;;;;;;0.75;0.75;;;;;;;22.89;31.12;94146.31;5097929;28;20423;-36
2022/10/22 09:05:33;;;;;;;0.80;0.80;;;;;;;22.96;31.59;94148.13;5092440;28;20023;-36
2022/10/22 09:07:58;;;;;;;3.15;1.73;;;;;;;22.46;31.55;94134.53;5098029;28;20028;-36
2022/10/22 09:10:28;;;;;;;0.60;0.60;;;;;;;22.84;31.81;94141.78;5092824;28;20522;-36
2022/10/22 09:12:54;;;;;;;0.82;0.82;;;;;;;22.89;31.60;94144.22;5091936;28;20141;-36
2022/10/22 09:15:19;;;;;;;2.13;1.77;;;;;;;22.96;31.66;94146.03;5092276;28;20063;-36
2022/10/22 09:18:10;;;;;;;1.30;1.20;;;;;;;23.11;31.98;94125.06;5097127;28;20024;-36
2022/10/22 09:20:55;;;;;;;3.17;1.75;;;;;;;22.81;31.06;94134.56;5092003;28;20512;-36
2022/10/22 09:23:52;;;;;;;1.27;1.20;;;;;;;22.87;32.02;94134.94;5074886;28;20059;-36
2022/10/22 09:26:17;;;;;;;1.98;1.50;;;;;;;22.98;31.79;94140.53;5093566;28;20055;-36
2022/10/22 09:28:43;;;;;;;1.88;1.55;;;;;;;22.97;30.23;94135.53;5074684;28;20079;-35
2022/10/22 09:31:13;;;;;;;1.25;1.25;;;;;;;22.84;31.81;94127.69;5075948;28;20036;-36
2022/10/22 09:33:40;;;;;;;0.52;0.52;;;;;;;22.83;31.81;94131.84;5092905;28;20031;-36
2022/10/22 09:36:06;;;;;;;1.80;1.70;;;;;;;22.96;31.01;94134.03;5094563;28;20348;-36
2022/10/22 09:38:52;;;;;;;0.77;0.77;;;;;;;22.84;31.14;94124.88;5095707;28;20024;-36
2022/10/22 09:41:19;;;;;;;1.10;1.00;;;;;;;22.97;31.05;94125.00;5090206;28;20043;-36
2022/10/22 09:43:48;;;;;;;0.90;0.90;;;;;;;23.43;30.55;94118.53;5093571;28;20483;-36
2022/10/22 09:46:19;;;;;;;2.72;1.70;;;;;;;23.79;29.82;94112.13;5094967;28;20392;-36
2022/10/22 09:48:59;;;;;;;1.17;1.08;;;;;;;24.10;28.66;94108.91;5092182;28;20102;-36
2022/10/22 09:51:40;;;;;;;0.50;0.50;;;;;;;23.79;28.66;94089.56;5091526;28;20036;-36
2022/10/22 09:54:20;;;;;;;2.25;1.63;;;;;;;23.96;28.77;94096.81;5073620;28;20118;-35
2022/10/22 09:56:50;;;;;;;8.65;1.33;;;;;;;24.17;28.44;94095.84;5093323;28;20027;-36
2022/10/22 09:59:18;;;;;;;0.65;0.65;;;;;;;24.46;28.36;94087.53;5089331;28;20457;-37
2022/10/22 10:01:44;;;;;;;0.70;0.70;;;;;;;24.94;28.03;94092.16;5092101;28;20470;-36
2022/10/22 10:04:13;;;;;;;0.88;0.88;;;;;;;25.23;26.88;94092.94;5087501;28;20154;-36
2022/10/22 10:06:40;;;;;;;1.90;1.38;;;;;;;25.63;26.81;94077.25;5099757;28;20028;-36
2022/10/22 10:09:17;;;;;;;1.33;1.23;;;;;;;25.70;27.19;94078.28;5089008;28;20039;-37
2022/10/22 10:11:48;;;;;;;1.55;1.17;;;;;;;26.09;25.72;94078.75;5084100;28;20047;-36
2022/10/22 10:14:35;;;;;;;0.80;0.80;;;;;;;26.36;25.19;94078.56;5075226;28;20044;-36
2022/10/22 10:17:17;;;;;;;0.82;0.82;;;;;;;26.26;25.08;94069.63;5092001;28;20028;-36
2022/10/22 10:20:14;;;;;;;0.95;0.93;;;;;;;26.55;24.43;94063.16;5092591;28;20035;-36
2022/10/22 10:22:49;;;;;;;0.70;0.70;;;;;;;26.98;25.18;94067.19;5078568;28;20051;-36
2022/10/22 10:25:35;;;;;;;1.27;1.15;;;;;;;26.72;24.97;94063.22;5093033;28;20020;-36
2022/10/22 10:28:29;;;;;;;1.52;1.48;;;;;;;26.64;25.34;94062.13;5088458;28;20031;-36
2022/10/22 10:30:58;;;;;;;1.88;1.77;;;;;;;27.07;24.70;94061.88;5091898;28;20023;-36
2022/10/22 10:33:26;;;;;;;;;;;;;;;27.57;24.51;94069.69;5075888;28;20036;-36
2022/10/22 10:36:17;;;;;;;1.08;0.63;;;;;;;27.95;23.80;94057.03;5093161;28;19919;-36
2022/10/22 10:39:00;;;;;;;1.00;0.90;;;;;;;28.42;23.38;94056.69;5080165;28;20048;-37
2022/10/22 10:41:53;;;;;;;1.15;0.88;;;;;;;28.95;22.11;94042.31;5070518;28;20048;-36
2022/10/22 10:44:26;;;;;;;2.03;1.75;;;;;;;28.84;21.36;94035.53;5091843;28;20479;-36
2022/10/22 10:47:00;;;;;;;1.08;1.02;;;;;;;28.78;20.66;94034.59;5093269;28;20031;-36
2022/10/22 10:49:32;;;;;;;1.42;0.85;;;;;;;28.66;21.04;94028.47;5089829;28;20046;-36
2022/10/22 10:52:12;;;;;;;1.45;0.82;;;;;;;29.20;20.54;94019.03;5074380;28;20050;-36
2022/10/22 10:54:52;;;;;;;1.25;1.15;;;;;;;29.34;20.39;94013.81;5077218;28;20495;-36
2022/10/22 10:57:20;;;;;;;9.00;3.72;;;;;;;29.58;20.16;94017.47;5089928;28;20389;-36
2022/10/22 11:00:03;;;;;;;2.00;1.42;;;;;;;29.75;19.27;94010.19;5092000;28;20055;-36
2022/10/22 11:02:59;;;;;;;1.33;1.08;;;;;;;29.72;19.97;94015.03;5090367;28;20141;-36
2022/10/22 11:05:56;;;;;;;4.45;2.17;;;;;;;29.50;19.96;94007.94;5092519;28;20084;-36
2022/10/22 11:08:25;;;;;;;3.80;0.82;;;;;;;28.80;20.26;93997.72;5092384;28;20051;-36
2022/10/22 11:10:55;;;;;;;1.45;1.35;;;;;;;28.52;20.65;94003.09;5092044;28;20086;-35
2022/10/22 11:13:26;;;;;;;0.32;0.32;;;;;;;28.18;20.92;94001.84;5092921;28;20123;-36
2022/10/22 11:16:22;;;;;;;2.88;1.08;;;;;;;27.29;21.83;94006.13;5075570;28;20034;-36
2022/10/22 11:19:10;;;;;;;1.25;1.25;;;;;;;27.26;22.14;93996.78;5069358;28;20055;-36
2022/10/22 11:21:40;;;;;;;0.88;0.45;;;;;;;27.44;21.79;93999.66;5075557;28;20658;-36
2022/10/22 11:24:20;;;;;;;0.47;0.47;;;;;;;27.17;22.08;93999.94;5073719;28;20777;-36
2022/10/22 11:27:01;;;;;;;0.73;0.73;;;;;;;26.67;22.10;93979.44;5089263;28;20027;-36
2022/10/22 11:29:31;;;;;;;1.73;1.13;;;;;;;26.15;22.59;93989.19;5088700;28;20405;-37
2022/10/22 11:31:57;;;;;;;1.00;1.00;;;;;;;25.86;22.99;93982.88;5068966;28;20039;-36
2022/10/22 11:34:33;;;;;;;1.40;1.23;;;;;;;25.36;23.98;93979.09;5076934;28;20027;-35
2022/10/22 11:36:59;;;;;;;0.68;0.50;;;;;;;24.90;24.43;93967.66;5061981;28;20063;-35
2022/10/22 11:39:49;;;;;;;0.60;0.60;;;;;;;24.78;24.87;93973.44;5068200;28;20063;-35
2022/10/22 11:42:22;;;;;;;1.20;1.15;;;;;;;25.39;23.50;93963.72;5056900;28;20140;-36
2022/10/22 11:45:00;;;;;;;0.85;0.85;;;;;;;24.89;24.63;93952.81;5088005;28;20032;-36
2022/10/22 11:47:31;;;;;;;1.27;1.17;;;;;;;24.93;24.38;93952.28;5096203;28;20101;-36
2022/10/22 11:50:02;;;;;;;1.77;1.48;;;;;;;24.73;25.17;93952.00;5090603;28;20110;-35
2022/10/22 11:52:30;;;;;;;0.88;0.88;;;;;;;24.89;24.94;93947.16;5069958;28;20516;-36